Time;durP1;ratioP1;P1;durP2;ratioP2;P2;SDS_P1;SDS_P2;PMS_P1;PMS_P2;Temp;Humidity;BMP_temperature;BMP_pressure;BME280_temperature;BME280_humidity;BME280_pressure;Samples;Min_cycle;Max_cycle;Signal;HPM_P1;HPM_P2
2021/03/02 00:01:18;;;;;;;1.95;0.40;;;;;;;;;;5018807;28;20063;-57
2021/03/02 00:03:44;;;;;;;2.53;0.60;;;;;;;;;;5013521;28;20120;-57
2021/03/02 00:06:11;;;;;;;4.25;0.52;;;;;;;;;;5017807;28;20044;-58
2021/03/02 00:08:37;;;;;;;2.88;0.70;;;;;;;;;;5015478;28;20045;-58
2021/03/02 00:11:04;;;;;;;2.33;0.55;;;;;;;;;;5013459;28;20053;-58
2021/03/02 00:13:30;;;;;;;2.05;0.70;;;;;;;;;;5014294;28;20061;-58
2021/03/02 00:15:58;;;;;;;6.13;0.80;;;;;;;;;;5016744;28;20041;-57
2021/03/02 00:18:24;;;;;;;3.40;0.55;;;;;;;;;;4992567;28;20112;-58
2021/03/02 00:20:59;;;;;;;2.50;0.63;;;;;;;;;;5015596;28;20939;-57
2021/03/02 00:23:26;;;;;;;4.10;1.10;;;;;;;;;;5017589;28;20069;-58
2021/03/02 00:25:55;;;;;;;3.15;0.80;;;;;;;;;;5016895;28;20217;-57
2021/03/02 00:28:25;;;;;;;3.30;0.57;;;;;;;;;;5015218;28;20160;-58
2021/03/02 00:30:51;;;;;;;5.50;0.60;;;;;;;;;;4981288;28;20064;-57
2021/03/02 00:33:18;;;;;;;2.15;0.60;;;;;;;;;;5008541;28;20271;-56
2021/03/02 00:35:44;;;;;;;3.63;0.70;;;;;;;;;;5011568;28;20778;-57
2021/03/02 00:38:10;;;;;;;3.65;0.70;;;;;;;;;;5006295;28;20033;-58
2021/03/02 00:40:36;;;;;;;1.88;0.50;;;;;;;;;;5009878;28;20041;-58
2021/03/02 00:43:02;;;;;;;3.70;0.85;;;;;;;;;;5012993;28;20065;-56
2021/03/02 00:45:28;;;;;;;2.28;0.70;;;;;;;;;;4995143;28;20970;-57
2021/03/02 00:47:54;;;;;;;3.25;0.80;;;;;;;;;;5011831;28;21475;-57
2021/03/02 00:50:21;;;;;;;3.88;0.60;;;;;;;;;;5003213;28;20045;-57
2021/03/02 00:52:47;;;;;;;2.30;0.70;;;;;;;;;;5029690;28;20386;-58
2021/03/02 00:55:13;;;;;;;2.55;0.63;;;;;;;;;;5029624;28;20049;-57
2021/03/02 00:57:39;;;;;;;4.53;0.60;;;;;;;;;;5022244;28;20037;-56
2021/03/02 01:00:06;;;;;;;3.75;0.57;;;;;;;;;;5026349;28;20038;-56
2021/03/02 01:02:32;;;;;;;2.58;0.80;;;;;;;;;;5016973;28;20049;-57
2021/03/02 01:04:58;;;;;;;3.17;0.73;;;;;;;;;;5019347;28;20084;-57
2021/03/02 01:07:24;;;;;;;3.40;0.88;;;;;;;;;;5003731;28;20033;-57
2021/03/02 01:09:50;;;;;;;3.83;0.80;;;;;;;;;;5025575;28;20193;-57
2021/03/02 01:12:25;;;;;;;3.13;0.80;;;;;;;;;;5026095;28;20045;-59
2021/03/02 01:14:51;;;;;;;3.05;1.00;;;;;;;;;;5015493;28;20504;-57
2021/03/02 01:17:17;;;;;;;3.28;1.00;;;;;;;;;;5034163;28;20048;-59
2021/03/02 01:19:43;;;;;;;2.42;0.68;;;;;;;;;;5035414;28;20032;-59
2021/03/02 01:22:09;;;;;;;2.72;0.70;;;;;;;;;;5030307;28;20461;-59
2021/03/02 01:24:44;;;;;;;2.45;0.70;;;;;;;;;;5024097;28;20037;-61
2021/03/02 01:27:10;;;;;;;1.45;0.60;;;;;;;;;;5036110;28;20394;-57
2021/03/02 01:29:36;;;;;;;3.33;0.70;;;;;;;;;;5007118;28;20041;-61
2021/03/02 01:32:02;;;;;;;2.65;0.73;;;;;;;;;;5031265;28;20059;-60
2021/03/02 01:34:32;;;;;;;3.53;0.80;;;;;;;;;;5006552;28;20068;-59
2021/03/02 01:37:01;;;;;;;2.70;0.63;;;;;;;;;;4988925;28;20096;-59
2021/03/02 01:39:28;;;;;;;2.05;0.60;;;;;;;;;;4948005;28;20041;-59
2021/03/02 01:41:55;;;;;;;3.72;0.65;;;;;;;;;;4987333;28;20050;-59
2021/03/02 01:44:30;;;;;;;3.47;0.63;;;;;;;;;;4988313;28;20085;-59
2021/03/02 01:46:56;;;;;;;1.65;0.60;;;;;;;;;;4962984;28;20038;-59
2021/03/02 01:49:22;;;;;;;2.08;0.60;;;;;;;;;;4971218;28;20088;-58
2021/03/02 01:51:51;;;;;;;2.55;0.80;;;;;;;;;;4972185;28;20104;-58
2021/03/02 01:54:17;;;;;;;3.40;0.70;;;;;;;;;;4972100;28;20049;-56
2021/03/02 01:56:43;;;;;;;3.25;0.70;;;;;;;;;;4986800;28;20046;-57
2021/03/02 01:59:10;;;;;;;2.38;0.65;;;;;;;;;;4970642;28;20037;-57
2021/03/02 02:01:40;;;;;;;2.05;0.60;;;;;;;;;;4972610;28;20478;-57
2021/03/02 02:04:17;;;;;;;4.60;0.70;;;;;;;;;;4986158;28;20034;-59
2021/03/02 02:06:49;;;;;;;3.45;0.60;;;;;;;;;;4966983;28;20814;-58
2021/03/02 02:09:36;;;;;;;3.83;0.80;;;;;;;;;;4986503;28;20126;-58
2021/03/02 02:12:28;;;;;;;2.53;0.80;;;;;;;;;;4998375;28;20057;-57
2021/03/02 02:15:10;;;;;;;2.35;0.68;;;;;;;;;;5009599;28;20036;-58
2021/03/02 02:17:41;;;;;;;2.90;0.60;;;;;;;;;;5034023;28;20041;-59
2021/03/02 02:20:22;;;;;;;3.05;0.60;;;;;;;;;;5033137;28;20037;-59
2021/03/02 02:22:47;;;;;;;2.60;0.80;;;;;;;;;;5034444;28;20075;-59
2021/03/02 02:25:16;;;;;;;1.88;0.60;;;;;;;;;;5032384;28;20038;-59
2021/03/02 02:27:43;;;;;;;1.60;0.50;;;;;;;;;;5032945;28;20071;-56
2021/03/02 02:30:10;;;;;;;2.13;0.70;;;;;;;;;;5033673;28;20049;-55
2021/03/02 02:32:37;;;;;;;2.10;0.60;;;;;;;;;;5031497;28;20033;-57
2021/03/02 02:35:04;;;;;;;3.00;0.60;;;;;;;;;;5033503;28;20043;-56
2021/03/02 02:37:31;;;;;;;5.20;1.10;;;;;;;;;;5031403;28;20037;-57
2021/03/02 02:39:57;;;;;;;3.13;0.68;;;;;;;;;;5031752;28;20045;-58
2021/03/02 02:42:24;;;;;;;2.28;0.60;;;;;;;;;;5033373;28;20037;-58
2021/03/02 02:44:50;;;;;;;2.60;0.80;;;;;;;;;;5016273;28;20503;-58
2021/03/02 02:47:17;;;;;;;3.60;0.70;;;;;;;;;;5030496;28;20502;-56
2021/03/02 02:49:45;;;;;;;2.38;0.73;;;;;;;;;;5006424;28;20055;-58
2021/03/02 02:52:14;;;;;;;2.40;0.70;;;;;;;;;;4998254;28;20128;-56
2021/03/02 02:54:40;;;;;;;2.30;0.60;;;;;;;;;;5011069;28;20060;-58
2021/03/02 02:57:07;;;;;;;2.13;0.60;;;;;;;;;;5013934;28;20431;-57
2021/03/02 02:59:35;;;;;;;2.78;0.70;;;;;;;;;;5013154;28;20056;-59
2021/03/02 03:02:03;;;;;;;3.95;0.60;;;;;;;;;;5011551;28;20037;-61
2021/03/02 03:04:34;;;;;;;3.65;0.73;;;;;;;;;;5012522;28;20041;-59
2021/03/02 03:07:03;;;;;;;2.20;0.50;;;;;;;;;;4979703;28;20034;-56
2021/03/02 03:09:29;;;;;;;2.30;0.60;;;;;;;;;;5011359;28;20049;-58
2021/03/02 03:12:00;;;;;;;2.25;0.73;;;;;;;;;;5013532;28;20053;-59
2021/03/02 03:14:27;;;;;;;2.50;0.68;;;;;;;;;;5012295;28;20041;-58
2021/03/02 03:16:54;;;;;;;2.33;0.60;;;;;;;;;;5012476;28;20160;-58
2021/03/02 03:19:27;;;;;;;2.08;0.50;;;;;;;;;;4995617;28;20120;-57
2021/03/02 03:21:53;;;;;;;2.85;0.80;;;;;;;;;;4989824;28;20452;-58
2021/03/02 03:24:21;;;;;;;3.03;0.80;;;;;;;;;;4989551;28;20039;-57
2021/03/02 03:26:48;;;;;;;3.35;0.90;;;;;;;;;;4996684;28;20057;-56
2021/03/02 03:29:14;;;;;;;2.75;0.90;;;;;;;;;;4993980;28;20041;-57
2021/03/02 03:31:41;;;;;;;2.30;0.70;;;;;;;;;;5011336;28;20045;-59
2021/03/02 03:34:07;;;;;;;2.35;0.82;;;;;;;;;;4990051;28;20042;-58
2021/03/02 03:36:35;;;;;;;2.92;0.80;;;;;;;;;;4993259;28;20087;-57
2021/03/02 03:39:03;;;;;;;5.03;0.70;;;;;;;;;;4989492;28;20052;-58
2021/03/02 03:41:29;;;;;;;2.85;0.80;;;;;;;;;;5011196;28;20034;-58
2021/03/02 03:43:55;;;;;;;2.70;0.80;;;;;;;;;;4995416;28;20045;-57
2021/03/02 03:46:21;;;;;;;2.72;0.80;;;;;;;;;;5012501;28;20038;-59
2021/03/02 03:48:47;;;;;;;2.92;0.90;;;;;;;;;;5006516;28;20049;-56
2021/03/02 03:51:14;;;;;;;3.08;0.80;;;;;;;;;;5030126;28;20107;-55
2021/03/02 03:53:41;;;;;;;3.45;0.88;;;;;;;;;;5033017;28;20045;-58
2021/03/02 03:56:07;;;;;;;2.40;0.70;;;;;;;;;;5032554;28;20040;-58
2021/03/02 03:58:33;;;;;;;2.33;0.70;;;;;;;;;;5031552;28;20052;-55
2021/03/02 04:01:01;;;;;;;4.10;0.80;;;;;;;;;;5033096;28;20037;-57
2021/03/02 04:03:28;;;;;;;2.55;0.80;;;;;;;;;;5015932;28;20429;-58
2021/03/02 04:05:54;;;;;;;3.90;0.80;;;;;;;;;;5032376;28;20045;-55
2021/03/02 04:08:23;;;;;;;2.55;0.70;;;;;;;;;;5008767;28;20049;-56
2021/03/02 04:10:52;;;;;;;3.55;0.70;;;;;;;;;;5030428;28;20083;-57
2021/03/02 04:13:18;;;;;;;3.15;0.85;;;;;;;;;;5014214;28;20038;-57
2021/03/02 04:15:44;;;;;;;2.97;0.70;;;;;;;;;;5017476;28;20109;-56
2021/03/02 04:18:19;;;;;;;3.55;0.70;;;;;;;;;;5031243;28;20092;-58
2021/03/02 04:20:45;;;;;;;2.50;0.80;;;;;;;;;;5031987;28;20068;-58
2021/03/02 04:23:11;;;;;;;2.50;0.70;;;;;;;;;;5016849;28;20041;-58
2021/03/02 04:25:37;;;;;;;3.00;0.80;;;;;;;;;;5013985;28;20048;-58
2021/03/02 04:28:04;;;;;;;2.40;0.70;;;;;;;;;;5031443;28;20197;-57
2021/03/02 04:30:30;;;;;;;3.25;0.70;;;;;;;;;;5009614;28;20057;-55
2021/03/02 04:32:56;;;;;;;2.42;0.90;;;;;;;;;;5034073;28;20048;-56
2021/03/02 04:35:22;;;;;;;1.90;0.70;;;;;;;;;;5032690;28;20048;-57
2021/03/02 04:37:48;;;;;;;2.85;0.80;;;;;;;;;;5031984;28;20029;-58
2021/03/02 04:40:14;;;;;;;2.83;0.88;;;;;;;;;;5031366;28;20897;-57
2021/03/02 04:42:40;;;;;;;3.03;0.77;;;;;;;;;;5031042;28;20497;-56
2021/03/02 04:45:07;;;;;;;3.60;0.80;;;;;;;;;;5000130;28;20043;-55
2021/03/02 04:47:33;;;;;;;3.53;0.80;;;;;;;;;;5031639;28;20040;-55
2021/03/02 04:49:59;;;;;;;3.10;0.75;;;;;;;;;;5025418;28;20045;-57
2021/03/02 04:52:25;;;;;;;2.40;0.70;;;;;;;;;;5015403;28;21961;-56
2021/03/02 04:54:51;;;;;;;2.72;0.90;;;;;;;;;;5015742;28;20460;-57
2021/03/02 04:57:17;;;;;;;2.88;0.70;;;;;;;;;;5014692;28;20041;-58
2021/03/02 04:59:42;;;;;;;3.05;0.90;;;;;;;;;;5014285;28;20050;-57
2021/03/02 05:02:08;;;;;;;2.78;0.80;;;;;;;;;;5016435;28;20046;-56
2021/03/02 05:04:34;;;;;;;2.47;0.70;;;;;;;;;;5015613;28;20037;-59
2021/03/02 05:07:00;;;;;;;2.58;0.80;;;;;;;;;;5015659;28;20035;-58
2021/03/02 05:09:26;;;;;;;4.32;0.70;;;;;;;;;;5014828;28;20041;-58
2021/03/02 05:11:55;;;;;;;3.85;1.00;;;;;;;;;;5015531;28;20141;-59
2021/03/02 05:14:21;;;;;;;3.45;0.90;;;;;;;;;;5015057;28;20099;-58
2021/03/02 05:16:47;;;;;;;2.85;0.80;;;;;;;;;;5016092;28;20050;-58
2021/03/02 05:19:13;;;;;;;3.10;0.82;;;;;;;;;;5015740;28;20037;-58
2021/03/02 05:21:39;;;;;;;2.70;1.00;;;;;;;;;;5013429;28;20033;-58
2021/03/02 05:24:05;;;;;;;3.72;0.90;;;;;;;;;;5014865;28;20386;-59
2021/03/02 05:26:31;;;;;;;3.03;1.00;;;;;;;;;;5015137;28;20542;-57
2021/03/02 05:28:57;;;;;;;2.75;1.00;;;;;;;;;;5014295;28;20045;-59
2021/03/02 05:31:23;;;;;;;4.90;1.10;;;;;;;;;;5013844;28;20046;-57
2021/03/02 05:33:49;;;;;;;2.95;1.10;;;;;;;;;;5015809;28;20037;-55
2021/03/02 05:36:15;;;;;;;6.25;1.02;;;;;;;;;;5015135;28;21452;-58
2021/03/02 05:38:41;;;;;;;3.00;1.10;;;;;;;;;;5014196;28;20029;-58
2021/03/02 05:41:10;;;;;;;3.65;0.95;;;;;;;;;;5016053;28;20037;-57
2021/03/02 05:43:45;;;;;;;2.40;0.80;;;;;;;;;;5015398;28;20042;-56
2021/03/02 05:46:11;;;;;;;3.08;0.80;;;;;;;;;;5015804;28;20037;-56
2021/03/02 05:48:41;;;;;;;3.10;0.80;;;;;;;;;;5014307;28;20092;-57
2021/03/02 05:51:08;;;;;;;3.08;1.00;;;;;;;;;;5014663;28;20053;-56
2021/03/02 05:53:34;;;;;;;3.30;1.00;;;;;;;;;;5014190;28;20553;-57
2021/03/02 05:56:00;;;;;;;2.70;0.80;;;;;;;;;;5013702;28;20074;-58
2021/03/02 05:58:26;;;;;;;3.47;0.90;;;;;;;;;;5014340;28;20081;-59
2021/03/02 06:00:53;;;;;;;3.05;1.10;;;;;;;;;;5013383;28;20157;-58
2021/03/02 06:03:19;;;;;;;2.97;1.00;;;;;;;;;;5012610;28;20482;-57
2021/03/02 06:05:45;;;;;;;2.85;1.00;;;;;;;;;;5015843;28;20048;-54
2021/03/02 06:08:11;;;;;;;2.80;1.00;;;;;;;;;;5014767;28;20141;-57
2021/03/02 06:10:37;;;;;;;3.30;1.10;;;;;;;;;;5012221;28;20519;-57
2021/03/02 06:13:03;;;;;;;3.33;1.15;;;;;;;;;;5015258;28;20679;-56
2021/03/02 06:15:30;;;;;;;3.15;1.05;;;;;;;;;;5013486;28;20160;-57
2021/03/02 06:18:12;;;;;;;2.55;0.90;;;;;;;;;;5014684;28;20144;-58
2021/03/02 06:20:39;;;;;;;4.53;1.10;;;;;;;;;;5014858;28;20640;-58
2021/03/02 06:23:25;;;;;;;4.30;1.23;;;;;;;;;;5015086;28;20045;-57
2021/03/02 06:25:55;;;;;;;3.92;1.40;;;;;;;;;;4986851;28;20042;-56
2021/03/02 06:28:38;;;;;;;4.90;1.30;;;;;;;;;;5012528;28;20041;-57
2021/03/02 06:31:04;;;;;;;2.70;1.10;;;;;;;;;;5014116;28;20138;-57
2021/03/02 06:33:30;;;;;;;3.75;1.30;;;;;;;;;;5014338;28;20056;-56
2021/03/02 06:35:59;;;;;;;3.00;1.05;;;;;;;;;;5015765;28;20939;-58
2021/03/02 06:38:32;;;;;;;3.25;1.20;;;;;;;;;;4996647;28;20045;-58
2021/03/02 06:40:59;;;;;;;3.63;1.15;;;;;;;;;;5013443;28;20056;-56
2021/03/02 06:43:33;;;;;;;3.13;1.10;;;;;;;;;;5013630;28;20799;-57
2021/03/02 06:45:58;;;;;;;;;;;;;;;;;;5015706;28;20128;-56
2021/03/02 06:48:24;;;;;;;2.60;0.90;;;;;;;;;;5012828;28;20378;-56
2021/03/02 06:50:50;;;;;;;3.15;1.00;;;;;;;;;;5030462;28;20074;-57
2021/03/02 06:53:17;;;;;;;3.83;1.02;;;;;;;;;;5015444;28;20064;-57
2021/03/02 06:55:43;;;;;;;3.47;0.95;;;;;;;;;;5034205;28;20043;-56
2021/03/02 06:58:18;;;;;;;2.80;1.00;;;;;;;;;;5032572;28;20531;-56
2021/03/02 07:00:48;;;;;;;4.40;1.20;;;;;;;;;;5032782;28;20426;-56
2021/03/02 07:03:40;;;;;;;6.20;1.05;;;;;;;;;;5033473;28;20044;-58
2021/03/02 07:06:08;;;;;;;3.50;1.20;;;;;;;;;;5028922;28;20037;-58
2021/03/02 07:08:36;;;;;;;2.97;1.00;;;;;;;;;;5031239;28;20041;-58
2021/03/02 07:11:03;;;;;;;3.10;1.02;;;;;;;;;;5033980;28;21932;-58
2021/03/02 07:13:32;;;;;;;5.30;1.30;;;;;;;;;;5032654;28;20478;-57
2021/03/02 07:15:58;;;;;;;5.20;1.30;;;;;;;;;;5032822;28;20160;-56
2021/03/02 07:18:28;;;;;;;4.10;1.67;;;;;;;;;;5031193;28;20033;-56
2021/03/02 07:20:59;;;;;;;4.68;1.30;;;;;;;;;;5031690;28;20062;-57
2021/03/02 07:23:27;;;;;;;3.92;1.60;;;;;;;;;;5032152;28;20069;-56
2021/03/02 07:25:55;;;;;;;3.20;1.20;;;;;;;;;;5032004;28;20041;-57
2021/03/02 07:28:24;;;;;;;3.55;1.15;;;;;;;;;;5031838;28;20040;-59
2021/03/02 07:30:52;;;;;;;4.18;1.10;;;;;;;;;;5032316;28;20130;-59
2021/03/02 07:33:18;;;;;;;5.00;1.30;;;;;;;;;;5033739;28;21043;-57
2021/03/02 07:35:45;;;;;;;3.63;1.30;;;;;;;;;;5032133;28;20585;-58
2021/03/02 07:38:21;;;;;;;3.10;1.10;;;;;;;;;;5032474;28;20053;-58
2021/03/02 07:40:55;;;;;;;4.10;1.50;;;;;;;;;;5032615;28;20036;-60
2021/03/02 07:43:41;;;;;;;3.45;1.23;;;;;;;;;;5030345;28;20364;-56
2021/03/02 07:46:25;;;;;;;3.13;1.02;;;;;;;;;;5032327;28;20052;-58
2021/03/02 07:48:51;;;;;;;3.83;1.10;;;;;;;;;;5031225;28;20385;-56
2021/03/02 07:51:19;;;;;;;3.30;1.20;;;;;;;;;;5030836;28;20052;-56
2021/03/02 07:53:45;;;;;;;4.22;1.17;;;;;;;;;;5032264;28;20043;-57
2021/03/02 07:56:23;;;;;;;5.05;1.20;;;;;;;;;;5032425;28;20049;-59
2021/03/02 07:59:04;;;;;;;2.85;0.90;;;;;;;;;;5031074;28;20052;-58
2021/03/02 08:01:30;;;;;;;3.38;0.80;;;;;;;;;;5031560;28;20033;-58
2021/03/02 08:04:23;;;;;;;2.47;0.90;;;;;;;;;;5032771;28;20036;-56
2021/03/02 08:06:52;;;;;;;3.38;0.90;;;;;;;;;;5032284;28;20041;-57
2021/03/02 08:09:21;;;;;;;2.90;1.05;;;;;;;;;;5030083;28;20041;-58
2021/03/02 08:11:47;;;;;;;4.88;1.45;;;;;;;;;;5031590;28;20092;-57
2021/03/02 08:14:16;;;;;;;2.70;1.00;;;;;;;;;;5034457;28;20401;-57
2021/03/02 08:17:00;;;;;;;4.97;0.98;;;;;;;;;;5031605;28;21869;-56
2021/03/02 08:19:39;;;;;;;2.75;1.00;;;;;;;;;;5029276;28;20037;-58
2021/03/02 08:22:34;;;;;;;2.80;1.00;;;;;;;;;;5030488;28;20036;-56
2021/03/02 08:25:02;;;;;;;2.65;0.80;;;;;;;;;;5012814;28;20148;-57
2021/03/02 08:27:34;;;;;;;4.93;1.00;;;;;;;;;;5031902;28;20086;-57
2021/03/02 08:30:00;;;;;;;3.58;1.05;;;;;;;;;;5032954;28;20143;-57
2021/03/02 08:32:29;;;;;;;3.38;0.82;;;;;;;;;;5030804;28;20055;-57
2021/03/02 08:34:55;;;;;;;3.50;0.82;;;;;;;;;;5032186;28;20053;-56
2021/03/02 08:37:36;;;;;;;5.00;0.93;;;;;;;;;;5032839;28;20029;-56
2021/03/02 08:40:02;;;;;;;4.43;0.90;;;;;;;;;;5033415;28;20033;-57
2021/03/02 08:42:28;;;;;;;3.38;1.02;;;;;;;;;;5034005;28;20033;-57
2021/03/02 08:45:07;;;;;;;3.00;0.85;;;;;;;;;;5034096;28;20028;-58
2021/03/02 08:47:34;;;;;;;3.33;1.00;;;;;;;;;;5032380;28;20453;-58
2021/03/02 08:50:00;;;;;;;2.28;0.70;;;;;;;;;;5010455;28;20056;-57
2021/03/02 08:52:36;;;;;;;2.70;0.93;;;;;;;;;;5032438;28;20486;-57
2021/03/02 08:55:02;;;;;;;4.20;1.00;;;;;;;;;;5031790;28;22061;-59
2021/03/02 08:57:28;;;;;;;3.00;0.95;;;;;;;;;;5030079;28;20060;-57
2021/03/02 08:59:55;;;;;;;2.72;0.90;;;;;;;;;;5031520;28;20176;-57
2021/03/02 09:02:21;;;;;;;2.92;0.93;;;;;;;;;;5031475;28;20102;-56
2021/03/02 09:04:46;;;;;;;3.75;1.10;;;;;;;;;;5031422;28;20038;-56
2021/03/02 09:07:12;;;;;;;4.13;1.20;;;;;;;;;;5033457;28;20059;-58
2021/03/02 09:09:38;;;;;;;5.18;0.80;;;;;;;;;;5032586;28;20094;-56
2021/03/02 09:12:05;;;;;;;3.00;1.02;;;;;;;;;;5032497;28;20426;-57
2021/03/02 09:14:36;;;;;;;2.92;0.90;;;;;;;;;;5028442;28;20049;-53
2021/03/02 09:17:06;;;;;;;3.30;1.05;;;;;;;;;;5031141;28;20038;-55
2021/03/02 09:19:33;;;;;;;3.53;0.93;;;;;;;;;;5030269;28;20041;-55
2021/03/02 09:22:08;;;;;;;3.22;0.90;;;;;;;;;;5033212;28;20041;-57
2021/03/02 09:24:36;;;;;;;4.68;1.00;;;;;;;;;;5031956;28;20041;-56
2021/03/02 09:27:03;;;;;;;3.08;0.90;;;;;;;;;;5031068;28;20052;-56
2021/03/02 09:29:34;;;;;;;4.65;0.85;;;;;;;;;;5031215;28;20080;-57
2021/03/02 09:32:03;;;;;;;4.15;0.80;;;;;;;;;;5030705;28;20076;-57
2021/03/02 09:34:38;;;;;;;2.67;0.80;;;;;;;;;;5029634;28;20041;-57
2021/03/02 09:37:05;;;;;;;2.78;0.90;;;;;;;;;;5036324;28;20529;-56
2021/03/02 09:39:31;;;;;;;2.60;0.80;;;;;;;;;;5033246;28;20037;-57
2021/03/02 09:41:57;;;;;;;2.55;0.70;;;;;;;;;;5035479;28;20363;-57
2021/03/02 09:44:24;;;;;;;3.00;0.70;;;;;;;;;;5035289;28;22023;-56
2021/03/02 09:46:51;;;;;;;2.40;0.60;;;;;;;;;;5036650;28;20510;-56
2021/03/02 09:49:35;;;;;;;3.13;0.80;;;;;;;;;;5035311;28;20663;-57
2021/03/02 09:52:02;;;;;;;2.67;0.70;;;;;;;;;;5034231;28;20041;-56
2021/03/02 09:54:28;;;;;;;2.05;0.60;;;;;;;;;;5034448;28;20072;-57
2021/03/02 09:56:57;;;;;;;2.90;0.65;;;;;;;;;;5036036;28;20124;-56
2021/03/02 09:59:26;;;;;;;1.83;0.52;;;;;;;;;;5035210;28;20076;-56
2021/03/02 10:01:52;;;;;;;2.50;0.80;;;;;;;;;;5036973;28;20468;-57
2021/03/02 10:04:19;;;;;;;2.63;0.70;;;;;;;;;;5035887;28;20041;-57
2021/03/02 10:06:47;;;;;;;2.28;0.73;;;;;;;;;;5036128;28;20041;-56
2021/03/02 10:09:22;;;;;;;1.65;0.52;;;;;;;;;;5035357;28;20056;-56
2021/03/02 10:12:06;;;;;;;3.08;0.70;;;;;;;;;;5033528;28;20040;-58
2021/03/02 10:14:42;;;;;;;2.47;0.65;;;;;;;;;;5032809;28;20078;-58
2021/03/02 10:17:08;;;;;;;1.67;0.50;;;;;;;;;;5033497;28;20033;-58
2021/03/02 10:19:35;;;;;;;2.58;0.85;;;;;;;;;;5034006;28;20526;-57
2021/03/02 10:22:02;;;;;;;2.38;0.60;;;;;;;;;;5033668;28;20163;-58
2021/03/02 10:24:41;;;;;;;3.35;0.60;;;;;;;;;;5032826;28;20043;-55
2021/03/02 10:27:19;;;;;;;3.03;0.55;;;;;;;;;;5034074;28;20029;-58
2021/03/02 10:29:46;;;;;;;1.75;0.50;;;;;;;;;;5033704;28;21009;-57
2021/03/02 10:32:13;;;;;;;3.28;0.70;;;;;;;;;;5032086;28;20056;-57
2021/03/02 10:34:41;;;;;;;2.17;0.70;;;;;;;;;;5032514;28;20036;-55
2021/03/02 10:37:08;;;;;;;2.50;0.70;;;;;;;;;;5033918;28;20461;-58
2021/03/02 10:39:34;;;;;;;2.40;0.77;;;;;;;;;;5033241;28;21157;-58
2021/03/02 10:42:00;;;;;;;3.95;0.75;;;;;;;;;;5034062;28;20037;-57
2021/03/02 10:44:26;;;;;;;3.35;0.90;;;;;;;;;;5032416;28;20037;-57
2021/03/02 10:46:52;;;;;;;2.53;0.82;;;;;;;;;;5034640;28;20036;-57
2021/03/02 10:49:18;;;;;;;3.00;1.02;;;;;;;;;;5033993;28;20118;-58
2021/03/02 10:51:44;;;;;;;3.60;1.10;;;;;;;;;;5035737;28;20071;-57
2021/03/02 10:54:11;;;;;;;2.70;0.70;;;;;;;;;;5034066;28;20371;-59
2021/03/02 10:56:37;;;;;;;3.17;0.82;;;;;;;;;;5034009;28;20067;-57
2021/03/02 10:59:04;;;;;;;3.42;0.80;;;;;;;;;;5033575;28;20045;-57
2021/03/02 11:01:31;;;;;;;2.47;0.70;;;;;;;;;;5033253;28;20039;-58
2021/03/02 11:03:57;;;;;;;3.38;1.20;;;;;;;;;;5033634;28;20094;-54
2021/03/02 11:06:26;;;;;;;3.40;1.10;;;;;;;;;;5034530;28;20048;-56
2021/03/02 11:08:53;;;;;;;3.75;1.00;;;;;;;;;;5032654;28;20044;-58
2021/03/02 11:11:20;;;;;;;5.25;1.08;;;;;;;;;;5032869;28;20433;-59
2021/03/02 11:13:46;;;;;;;3.05;1.10;;;;;;;;;;5032887;28;20064;-58
2021/03/02 11:16:12;;;;;;;3.17;1.15;;;;;;;;;;5032834;28;20060;-57
2021/03/02 11:18:38;;;;;;;3.92;0.90;;;;;;;;;;5032768;28;20055;-59
2021/03/02 11:21:04;;;;;;;4.35;1.08;;;;;;;;;;5033507;28;20124;-58
2021/03/02 11:23:30;;;;;;;3.55;1.05;;;;;;;;;;5032080;28;20039;-58
2021/03/02 11:25:56;;;;;;;3.35;1.30;;;;;;;;;;5034547;28;20068;-59
2021/03/02 11:28:22;;;;;;;4.78;1.48;;;;;;;;;;5032812;28;20036;-55
2021/03/02 11:30:48;;;;;;;4.20;1.23;;;;;;;;;;5032416;28;20045;-56
2021/03/02 11:33:14;;;;;;;4.13;1.50;;;;;;;;;;5032049;28;20037;-56
2021/03/02 11:35:40;;;;;;;3.08;1.17;;;;;;;;;;5030641;28;20437;-58
2021/03/02 11:38:07;;;;;;;3.08;1.05;;;;;;;;;;5032333;28;20060;-58
2021/03/02 11:40:33;;;;;;;4.60;1.33;;;;;;;;;;5032754;28;20037;-57
2021/03/02 11:42:59;;;;;;;3.63;1.45;;;;;;;;;;5032564;28;20033;-58
2021/03/02 11:45:26;;;;;;;4.97;1.35;;;;;;;;;;5033975;28;20033;-58
2021/03/02 11:47:52;;;;;;;6.00;1.35;;;;;;;;;;5033695;28;20957;-58
2021/03/02 11:50:19;;;;;;;3.47;1.42;;;;;;;;;;5033455;28;20063;-58
2021/03/02 11:52:45;;;;;;;5.75;1.98;;;;;;;;;;5033898;28;20037;-57
2021/03/02 11:55:11;;;;;;;5.97;1.88;;;;;;;;;;5032301;28;20092;-57
2021/03/02 11:57:37;;;;;;;5.50;1.83;;;;;;;;;;5032840;28;20219;-57
2021/03/02 12:00:04;;;;;;;4.38;1.90;;;;;;;;;;5034973;28;20111;-55
2021/03/02 12:02:30;;;;;;;4.65;1.67;;;;;;;;;;5031617;28;20033;-56
2021/03/02 12:04:56;;;;;;;4.78;2.10;;;;;;;;;;5032997;28;20067;-56
2021/03/02 12:07:22;;;;;;;4.70;2.08;;;;;;;;;;5030719;28;20163;-58
2021/03/02 12:09:48;;;;;;;5.53;1.90;;;;;;;;;;5032104;28;20086;-58
2021/03/02 12:12:14;;;;;;;4.00;1.90;;;;;;;;;;5032928;28;20095;-58
2021/03/02 12:14:40;;;;;;;4.47;1.88;;;;;;;;;;5032692;28;20040;-58
2021/03/02 12:17:06;;;;;;;5.28;1.83;;;;;;;;;;5030847;28;20526;-58
2021/03/02 12:19:32;;;;;;;8.70;2.10;;;;;;;;;;5032267;28;20122;-57
2021/03/02 12:21:58;;;;;;;3.53;1.67;;;;;;;;;;5027051;28;20033;-56
2021/03/02 12:24:24;;;;;;;5.20;1.70;;;;;;;;;;5031994;28;20064;-56
2021/03/02 12:26:50;;;;;;;3.33;1.40;;;;;;;;;;5033199;28;20858;-56
2021/03/02 12:29:16;;;;;;;4.10;1.48;;;;;;;;;;5031430;28;20041;-56
2021/03/02 12:31:44;;;;;;;4.00;1.42;;;;;;;;;;5031026;28;20052;-55
2021/03/02 12:34:10;;;;;;;4.38;1.63;;;;;;;;;;5013889;28;20048;-55
2021/03/02 12:36:36;;;;;;;3.58;1.45;;;;;;;;;;5031782;28;20033;-54
2021/03/02 12:39:02;;;;;;;4.68;1.65;;;;;;;;;;5009928;28;20120;-54
2021/03/02 12:41:28;;;;;;;4.22;1.90;;;;;;;;;;5031137;28;20040;-55
2021/03/02 12:43:54;;;;;;;5.30;2.03;;;;;;;;;;5032918;28;20033;-56
2021/03/02 12:46:20;;;;;;;8.18;1.80;;;;;;;;;;5013531;28;20083;-56
2021/03/02 12:48:46;;;;;;;4.35;1.80;;;;;;;;;;5032416;28;20477;-56
2021/03/02 12:51:12;;;;;;;3.70;1.52;;;;;;;;;;5014126;28;20136;-58
2021/03/02 12:53:38;;;;;;;4.15;1.63;;;;;;;;;;5014457;28;20052;-59
2021/03/02 12:56:04;;;;;;;4.80;2.10;;;;;;;;;;5017174;28;20033;-54
2021/03/02 12:58:30;;;;;;;4.47;1.63;;;;;;;;;;5013557;28;20045;-57
2021/03/02 13:00:56;;;;;;;4.88;1.90;;;;;;;;;;5015749;28;20046;-56
2021/03/02 13:03:23;;;;;;;5.35;1.98;;;;;;;;;;5017034;28;20040;-57
2021/03/02 13:05:49;;;;;;;3.70;1.60;;;;;;;;;;5018665;28;20041;-58
2021/03/02 13:08:15;;;;;;;5.18;1.88;;;;;;;;;;4997489;28;20045;-58
2021/03/02 13:10:41;;;;;;;3.97;1.70;;;;;;;;;;4997007;28;20040;-56
2021/03/02 13:13:07;;;;;;;5.68;1.90;;;;;;;;;;5021387;28;20044;-56
2021/03/02 13:15:33;;;;;;;4.65;1.83;;;;;;;;;;5019519;28;20053;-56
2021/03/02 13:17:59;;;;;;;6.95;2.58;;;;;;;;;;5010444;28;20164;-57
2021/03/02 13:20:25;;;;;;;3.67;1.60;;;;;;;;;;5017654;28;20033;-59
2021/03/02 13:22:54;;;;;;;5.00;2.05;;;;;;;;;;5017530;28;20045;-58
2021/03/02 13:25:20;;;;;;;5.65;2.58;;;;;;;;;;5018673;28;20793;-53
2021/03/02 13:27:49;;;;;;;8.85;3.78;;;;;;;;;;5013747;28;20378;-59
2021/03/02 13:30:19;;;;;;;5.25;2.10;;;;;;;;;;5002374;28;20040;-56
2021/03/02 13:32:55;;;;;;;5.15;2.05;;;;;;;;;;4969562;28;20053;-58
2021/03/02 13:35:22;;;;;;;5.78;1.90;;;;;;;;;;5016233;28;20041;-57
2021/03/02 13:37:48;;;;;;;4.50;1.75;;;;;;;;;;5018942;28;22051;-56
2021/03/02 13:40:16;;;;;;;5.65;2.10;;;;;;;;;;5017479;28;20053;-56
2021/03/02 13:42:42;;;;;;;4.15;1.80;;;;;;;;;;5019098;28;20771;-57
2021/03/02 13:45:09;;;;;;;5.78;2.05;;;;;;;;;;5018692;28;20061;-54
2021/03/02 13:47:35;;;;;;;4.55;2.08;;;;;;;;;;5016903;28;20640;-57
2021/03/02 13:50:01;;;;;;;7.50;3.15;;;;;;;;;;5026684;28;20056;-58
2021/03/02 13:52:28;;;;;;;6.68;2.20;;;;;;;;;;5034837;28;20478;-58
2021/03/02 13:54:55;;;;;;;3.90;1.75;;;;;;;;;;5029688;28;20033;-58
2021/03/02 13:57:21;;;;;;;4.93;2.20;;;;;;;;;;5035445;28;20118;-57
2021/03/02 13:59:47;;;;;;;6.88;3.33;;;;;;;;;;5036918;28;20600;-58
2021/03/02 14:02:13;;;;;;;7.45;2.42;;;;;;;;;;5037864;28;20049;-58
2021/03/02 14:04:40;;;;;;;4.88;2.25;;;;;;;;;;5036234;28;20051;-58
2021/03/02 14:07:06;;;;;;;5.78;2.33;;;;;;;;;;5036220;28;20045;-57
2021/03/02 14:09:33;;;;;;;5.32;2.42;;;;;;;;;;5037079;28;20037;-58
2021/03/02 14:11:59;;;;;;;8.43;2.92;;;;;;;;;;5035500;28;20056;-59
2021/03/02 14:14:27;;;;;;;5.90;2.72;;;;;;;;;;5035614;28;20033;-58
2021/03/02 14:16:54;;;;;;;7.72;2.80;;;;;;;;;;5036360;28;20052;-58
2021/03/02 14:19:21;;;;;;;7.25;2.95;;;;;;;;;;5033965;28;22269;-57
2021/03/02 14:21:46;;;;;;;5.65;2.75;;;;;;;;;;5031306;28;20025;-56
2021/03/02 14:24:14;;;;;;;6.53;2.63;;;;;;;;;;5035463;28;20041;-57
2021/03/02 14:26:40;;;;;;;6.18;2.72;;;;;;;;;;5033923;28;20037;-56
2021/03/02 14:29:07;;;;;;;5.43;2.67;;;;;;;;;;5034449;28;20045;-58
2021/03/02 14:31:33;;;;;;;5.95;2.70;;;;;;;;;;5034137;28;20135;-57
2021/03/02 14:33:59;;;;;;;9.10;3.05;;;;;;;;;;5034943;28;20418;-54
2021/03/02 14:36:25;;;;;;;7.38;2.80;;;;;;;;;;5033700;28;20041;-58
2021/03/02 14:38:51;;;;;;;5.32;2.78;;;;;;;;;;5018611;28;20275;-58
2021/03/02 14:41:22;;;;;;;9.25;3.08;;;;;;;;;;5033370;28;20037;-57
2021/03/02 14:43:52;;;;;;;7.10;2.92;;;;;;;;;;5034592;28;20086;-58
2021/03/02 14:46:23;;;;;;;6.55;3.05;;;;;;;;;;5035209;28;20112;-58
2021/03/02 14:48:53;;;;;;;7.47;2.88;;;;;;;;;;5033702;28;20045;-57